Time;durP1;ratioP1;P1;durP2;ratioP2;P2;SDS_P1;SDS_P2;PMS_P1;PMS_P2;Temp;Humidity;BMP_temperature;BMP_pressure;BME280_temperature;BME280_humidity;BME280_pressure;Samples;Min_cycle;Max_cycle;Signal;HPM_P1;HPM_P2
2022/10/29 00:02:26;;;;;;;;;;;;;;;14.08;79.75;97067.75;4978141;28;20373;-79
2022/10/29 00:04:52;;;;;;;;;;;;;;;13.99;79.96;97061.47;4961259;28;19928;-81
2022/10/29 00:07:19;;;;;;;;;;;;;;;13.98;80.13;97065.34;4980827;28;19932;-79
2022/10/29 00:09:45;;;;;;;;;;;;;;;13.94;80.12;97067.09;4980130;28;19922;-79
2022/10/29 00:12:12;;;;;;;;;;;;;;;13.90;80.58;97071.63;4980175;28;19928;-80
2022/10/29 00:14:41;;;;;;;;;;;;;;;13.89;80.94;97075.50;4982034;28;20389;-79
2022/10/29 00:17:07;;;;;;;;;;;;;;;13.85;81.14;97072.59;4983977;28;20369;-79
2022/10/29 00:19:33;;;;;;;;;;;;;;;13.82;81.09;97074.03;4980705;28;19929;-80
2022/10/29 00:22:00;;;;;;;;;;;;;;;13.81;81.25;97071.63;4980664;28;19921;-80
2022/10/29 00:24:26;;;;;;;;;;;;;;;13.75;81.11;97084.66;4986472;28;19921;-80
2022/10/29 00:26:53;;;;;;;;;;;;;;;13.69;80.83;97080.47;4979252;28;19922;-80
2022/10/29 00:29:19;;;;;;;;;;;;;;;13.64;80.75;97088.84;4978423;28;19926;-79
2022/10/29 00:31:49;;;;;;;;;;;;;;;13.61;80.76;97078.53;4978640;28;20004;-80
2022/10/29 00:34:15;;;;;;;;;;;;;;;13.61;81.23;97074.97;4978296;28;20443;-80
2022/10/29 00:36:42;;;;;;;;;;;;;;;13.56;81.79;97074.00;4978459;28;19932;-80
2022/10/29 00:39:12;;;;;;;;;;;;;;;13.51;82.01;97070.63;4977899;28;19933;-80
2022/10/29 00:41:39;;;;;;;;;;;;;;;13.54;82.21;97075.47;4978272;28;19926;-80
2022/10/29 00:44:24;;;;;;;;;;;;;;;13.56;82.30;97078.66;4977575;28;20428;-80
2022/10/29 00:46:54;;;;;;;;;;;;;;;13.63;82.64;97080.97;4978077;28;19922;-79
2022/10/29 00:49:20;;;;;;;;;;;;;;;13.65;82.69;97079.50;4960436;28;19922;-79
2022/10/29 00:51:48;;;;;;;;;;;;;;;13.70;82.79;97084.81;4982456;28;19922;-80
2022/10/29 00:54:16;;;;;;;;;;;;;;;13.71;82.79;97072.75;4984807;28;19922;-80
2022/10/29 00:56:45;;;;;;;;;;;;;;;13.71;82.97;97072.75;4985205;28;19932;-79
2022/10/29 00:59:12;;;;;;;;;;;;;;;13.76;82.65;97072.59;4986645;28;19928;-80
2022/10/29 01:01:39;;;;;;;;;;;;;;;13.78;82.88;97070.34;4985819;28;19922;-79
2022/10/29 01:04:07;;;;;;;;;;;;;;;13.79;82.94;97066.47;4983222;28;19922;-79
2022/10/29 01:06:33;;;;;;;;;;;;;;;13.82;83.27;97070.50;4981548;28;20045;-79
2022/10/29 01:09:00;;;;;;;;;;;;;;;13.83;82.79;97072.94;4992212;28;19969;-81
2022/10/29 01:11:29;;;;;;;;;;;;;;;13.84;82.76;97066.31;4998773;28;19952;-80
2022/10/29 01:14:02;;;;;;;;;;;;;;;13.79;83.01;97071.94;4998824;28;19905;-80
2022/10/29 01:16:35;;;;;;;;;;;;;;;13.78;82.46;97067.63;4982159;28;20544;-80
2022/10/29 01:19:10;;;;;;;;;;;;;;;13.78;82.79;97073.09;4972771;28;19944;-79
2022/10/29 01:21:42;;;;;;;;;;;;;;;13.76;83.12;97086.28;4978553;28;19928;-80
2022/10/29 01:24:27;;;;;;;;;;;;;;;13.77;82.75;97078.84;4977855;28;19922;-79
2022/10/29 01:27:08;;;;;;;;;;;;;;;13.74;82.59;97076.78;4997934;28;19906;-80
2022/10/29 01:29:41;;;;;;;;;;;;;;;13.71;82.80;97078.22;4989002;28;19922;-80
2022/10/29 01:32:11;;;;;;;;;;;;;;;13.67;82.57;97071.75;4977826;28;19945;-79
2022/10/29 01:34:41;;;;;;;;;;;;;;;13.65;82.79;97074.03;4978085;28;19921;-80
2022/10/29 01:37:14;;;;;;;;;;;;;;;13.63;82.76;97081.75;4977322;28;19922;-80
2022/10/29 01:39:43;;;;;;;;;;;;;;;13.61;82.99;97083.19;4960074;28;19929;-80
2022/10/29 01:42:12;;;;;;;;;;;;;;;13.57;83.02;97089.31;4958900;28;20544;-79
2022/10/29 01:44:42;;;;;;;;;;;;;;;13.54;83.08;97092.69;4958706;28;19922;-79
2022/10/29 01:47:12;;;;;;;;;;;;;;;13.53;82.88;97087.53;4957185;29;19922;-79
2022/10/29 01:49:40;;;;;;;;;;;;;;;13.48;83.15;97076.75;4957288;29;20363;-79
2022/10/29 01:52:08;;;;;;;;;;;;;;;13.40;83.16;97074.78;4963903;28;20369;-79
2022/10/29 01:54:39;;;;;;;;;;;;;;;13.31;83.29;97077.47;4976318;28;19926;-80
2022/10/29 01:57:20;;;;;;;;;;;;;;;13.28;82.96;97067.19;4975226;28;19928;-81
2022/10/29 01:59:46;;;;;;;;;;;;;;;13.27;82.84;97069.13;4975652;28;19922;-79
2022/10/29 02:02:19;;;;;;;;;;;;;;;13.26;82.68;97072.19;4974982;28;19922;-78
2022/10/29 02:04:53;;;;;;;;;;;;;;;13.28;82.52;97070.72;4976302;28;19957;-79
2022/10/29 02:07:24;;;;;;;;;;;;;;;13.29;82.25;97064.13;4975673;28;19930;-80
2022/10/29 02:09:54;;;;;;;;;;;;;;;13.24;82.48;97064.28;4975708;28;20317;-80
2022/10/29 02:12:24;;;;;;;;;;;;;;;13.24;82.22;97067.00;4975331;28;19928;-80
2022/10/29 02:14:52;;;;;;;;;;;;;;;13.22;82.07;97058.34;4977493;28;19933;-79
2022/10/29 02:17:20;;;;;;;;;;;;;;;13.18;82.07;97059.25;4975984;28;19922;-80
2022/10/29 02:19:47;;;;;;;;;;;;;;;13.19;81.99;97055.38;4975528;28;20468;-79
2022/10/29 02:22:13;;;;;;;;;;;;;;;13.16;81.89;97050.56;4975418;28;19922;-80
2022/10/29 02:24:40;;;;;;;;;;;;;;;13.17;81.80;97052.97;4975860;28;19922;-80
2022/10/29 02:27:06;;;;;;;;;;;;;;;13.20;81.79;97051.53;4976248;28;19922;-79
2022/10/29 02:29:33;;;;;;;;;;;;;;;13.24;81.67;97052.53;4976027;28;20325;-79
2022/10/29 02:32:00;;;;;;;;;;;;;;;13.26;81.80;97055.78;4975784;28;19929;-80
2022/10/29 02:34:27;;;;;;;;;;;;;;;13.28;81.52;97057.06;4994952;28;20391;-79
2022/10/29 02:36:54;;;;;;;;;;;;;;;13.25;81.17;97060.41;4989669;28;19922;-79
2022/10/29 02:39:20;;;;;;;;;;;;;;;13.13;79.78;97062.94;4975483;28;19929;-79
2022/10/29 02:41:47;;;;;;;;;;;;;;;13.01;79.78;97060.00;4975821;28;20392;-80
2022/10/29 02:44:13;;;;;;;;;;;;;;;12.95;79.61;97061.28;4981051;28;20008;-80
2022/10/29 02:46:40;;;;;;;;;;;;;;;12.89;80.03;97062.50;4983451;28;19922;-80
2022/10/29 02:49:07;;;;;;;;;;;;;;;12.84;80.21;97055.25;4982533;28;19922;-79
2022/10/29 02:51:35;;;;;;;;;;;;;;;12.80;80.77;97054.31;4983111;28;19922;-79
2022/10/29 02:54:01;;;;;;;;;;;;;;;12.78;81.40;97057.31;4981994;28;20280;-79
2022/10/29 02:56:28;;;;;;;;;;;;;;;12.76;81.83;97048.66;4983255;28;19922;-80
2022/10/29 02:58:54;;;;;;;;;;;;;;;12.73;82.35;97049.25;4982536;28;19956;-80
2022/10/29 03:01:20;;;;;;;;;;;;;;;12.72;82.76;97044.13;4983081;28;20404;-79
2022/10/29 03:03:47;;;;;;;;;;;;;;;12.67;83.11;97034.13;4983021;28;20024;-79
2022/10/29 03:06:14;;;;;;;;;;;;;;;12.68;83.40;97046.66;4982087;28;19922;-79
2022/10/29 03:08:41;;;;;;;;;;;;;;;12.67;83.05;97045.06;4983474;28;19922;-80
2022/10/29 03:11:08;;;;;;;;;;;;;;;12.67;83.26;97050.53;4987364;28;19922;-80
2022/10/29 03:13:35;;;;;;;;;;;;;;;12.65;83.41;97050.03;4988945;28;19928;-80
2022/10/29 03:16:01;;;;;;;;;;;;;;;12.64;83.46;97051.19;4984444;28;19928;-80
2022/10/29 03:18:27;;;;;;;;;;;;;;;12.54;83.67;97040.50;4982274;28;19928;-79
2022/10/29 03:20:54;;;;;;;;;;;;;;;12.49;84.10;97037.91;4981998;28;20016;-79
2022/10/29 03:23:21;;;;;;;;;;;;;;;12.51;84.07;97041.13;4996035;28;20009;-80
2022/10/29 03:25:52;;;;;;;;;;;;;;;12.53;83.92;97047.09;5002751;28;19922;-80
2022/10/29 03:28:18;;;;;;;;;;;;;;;12.54;84.33;97048.72;5002285;28;19906;-80
2022/10/29 03:30:45;;;;;;;;;;;;;;;12.54;84.45;97052.25;5002017;28;19906;-80
2022/10/29 03:33:11;;;;;;;;;;;;;;;12.55;84.55;97058.50;5002335;28;19953;-80
2022/10/29 03:35:38;;;;;;;;;;;;;;;12.52;84.18;97059.13;4990617;28;19928;-79
2022/10/29 03:38:04;;;;;;;;;;;;;;;12.42;84.37;97049.25;4986247;28;19922;-78
2022/10/29 03:40:30;;;;;;;;;;;;;;;12.38;84.34;97052.97;4984286;28;19922;-79
2022/10/29 03:42:58;;;;;;;;;;;;;;;12.38;84.90;97050.22;4983277;28;19922;-80
2022/10/29 03:45:25;;;;;;;;;;;;;;;12.38;85.14;97042.84;4981959;28;19934;-79
2022/10/29 03:47:51;;;;;;;;;;;;;;;12.37;85.09;97051.31;4982571;28;20380;-80
2022/10/29 03:50:17;;;;;;;;;;;;;;;12.41;84.96;97046.84;4981584;28;20292;-79
2022/10/29 03:52:44;;;;;;;;;;;;;;;12.46;85.17;97054.91;4982154;28;19956;-85
2022/10/29 03:55:10;;;;;;;;;;;;;;;12.51;84.84;97057.53;4979150;28;19922;-78
2022/10/29 03:57:37;;;;;;;;;;;;;;;12.53;84.64;97049.84;4978927;28;19929;-81
2022/10/29 04:00:05;;;;;;;;;;;;;;;12.54;84.30;97056.91;4979120;28;19937;-80
2022/10/29 04:02:32;;;;;;;;;;;;;;;12.53;84.24;97060.75;4978923;28;19922;-80
2022/10/29 04:04:58;;;;;;;;;;;;;;;12.54;83.85;97063.16;4979203;28;19928;-78
2022/10/29 04:07:25;;;;;;;;;;;;;;;12.52;83.81;97064.59;4987245;28;19918;-79
2022/10/29 04:09:51;;;;;;;;;;;;;;;12.51;83.42;97063.78;4999273;28;19920;-80
2022/10/29 04:12:17;;;;;;;;;;;;;;;12.53;83.29;97066.22;4992232;28;19922;-78
2022/10/29 04:14:44;;;;;;;;;;;;;;;12.51;83.44;97057.53;4981890;28;19922;-79
2022/10/29 04:17:12;;;;;;;;;;;;;;;12.49;83.39;97048.84;4979640;28;19976;-79
2022/10/29 04:19:39;;;;;;;;;;;;;;;12.46;83.46;97047.53;4979344;28;19926;-79
2022/10/29 04:22:05;;;;;;;;;;;;;;;12.46;83.67;97049.47;4983191;28;20013;-78
2022/10/29 04:24:32;;;;;;;;;;;;;;;12.51;83.47;97049.31;4980372;28;20500;-79
2022/10/29 04:26:58;;;;;;;;;;;;;;;12.56;83.42;97054.66;4978408;28;19929;-80
2022/10/29 04:29:24;;;;;;;;;;;;;;;12.62;83.90;97058.06;4977446;28;19922;-80
2022/10/29 04:31:51;;;;;;;;;;;;;;;12.64;83.65;97067.56;4977989;28;20305;-79
2022/10/29 04:34:19;;;;;;;;;;;;;;;12.69;83.66;97059.22;4977498;28;19922;-80
2022/10/29 04:36:46;;;;;;;;;;;;;;;12.68;83.32;97068.53;4978400;28;19934;-79
2022/10/29 04:39:12;;;;;;;;;;;;;;;12.69;83.43;97063.91;4977533;28;19928;-78
2022/10/29 04:41:39;;;;;;;;;;;;;;;12.70;83.77;97060.03;4960783;28;19945;-79
2022/10/29 04:44:05;;;;;;;;;;;;;;;12.71;84.08;97056.97;4959767;28;19929;-79
2022/10/29 04:46:32;;;;;;;;;;;;;;;12.71;84.24;97051.50;4977972;28;20305;-79
2022/10/29 04:48:58;;;;;;;;;;;;;;;12.74;84.05;97048.16;4960003;28;19922;-79
2022/10/29 04:51:26;;;;;;;;;;;;;;;12.76;83.96;97043.19;4977729;28;20686;-79
2022/10/29 04:53:53;;;;;;;;;;;;;;;12.71;83.96;97037.84;4960345;28;19953;-79
2022/10/29 04:56:19;;;;;;;;;;;;;;;12.71;83.95;97035.13;4977173;28;19922;-80
2022/10/29 04:58:46;;;;;;;;;;;;;;;12.73;83.90;97040.25;4978148;28;19929;-79
2022/10/29 05:01:12;;;;;;;;;;;;;;;12.74;83.81;97034.50;4978259;28;19926;-80
2022/10/29 05:03:39;;;;;;;;;;;;;;;12.76;83.97;97037.72;4984647;28;19993;-80
2022/10/29 05:06:06;;;;;;;;;;;;;;;12.77;83.77;97039.31;4990587;28;19922;-80
2022/10/29 05:08:34;;;;;;;;;;;;;;;12.76;83.55;97034.97;4994488;28;19981;-81
2022/10/29 05:11:01;;;;;;;;;;;;;;;12.72;83.60;97039.47;4993620;28;19922;-80
2022/10/29 05:13:28;;;;;;;;;;;;;;;12.74;83.29;97028.22;4983523;28;19921;-80
2022/10/29 05:15:54;;;;;;;;;;;;;;;12.75;83.08;97030.66;4978447;28;20363;-80
2022/10/29 05:18:21;;;;;;;;;;;;;;;12.77;82.15;97033.84;4978796;28;19922;-80
2022/10/29 05:20:47;;;;;;;;;;;;;;;12.80;81.63;97032.44;4978822;28;19944;-79
2022/10/29 05:23:13;;;;;;;;;;;;;;;12.86;81.85;97033.09;4977585;28;19922;-79
2022/10/29 05:25:41;;;;;;;;;;;;;;;12.87;81.99;97034.69;4978130;28;19928;-80
2022/10/29 05:28:11;;;;;;;;;;;;;;;12.87;82.27;97034.69;4977933;28;19926;-79
2022/10/29 05:30:38;;;;;;;;;;;;;;;12.89;82.51;97032.44;4978683;28;20425;-80
2022/10/29 05:33:05;;;;;;;;;;;;;;;12.91;82.21;97025.56;4961479;28;19932;-80
2022/10/29 05:35:32;;;;;;;;;;;;;;;12.92;82.28;97029.09;4977185;28;19999;-79
2022/10/29 05:37:59;;;;;;;;;;;;;;;12.90;82.66;97025.88;4977612;28;19928;-80
2022/10/29 05:40:25;;;;;;;;;;;;;;;12.87;82.57;97042.91;4977238;28;20016;-79
2022/10/29 05:42:53;;;;;;;;;;;;;;;12.86;82.54;97047.56;4959957;28;19926;-79
2022/10/29 05:45:20;;;;;;;;;;;;;;;12.84;82.38;97046.25;4977820;28;19922;-80
2022/10/29 05:47:46;;;;;;;;;;;;;;;12.83;82.46;97041.91;4977909;28;19922;-79
2022/10/29 05:50:13;;;;;;;;;;;;;;;12.82;82.65;97051.25;4977543;28;19928;-80
2022/10/29 05:52:39;;;;;;;;;;;;;;;12.78;82.89;97043.66;4977551;28;19922;-80
2022/10/29 05:55:06;;;;;;;;;;;;;;;12.77;83.14;97047.53;4977663;28;19928;-82
2022/10/29 05:57:33;;;;;;;;;;;;;;;12.80;83.36;97044.16;4977694;28;20583;-80
2022/10/29 06:00:01;;;;;;;;;;;;;;;12.84;83.29;97049.00;4977445;28;19922;-75
2022/10/29 06:02:27;;;;;;;;;;;;;;;12.86;82.76;97052.22;4972075;28;20289;-74
2022/10/29 06:04:54;;;;;;;;;;;;;;;12.86;82.89;97055.75;4972124;28;19926;-74
2022/10/29 06:07:20;;;;;;;;;;;;;;;12.80;83.10;97054.31;4970787;28;19976;-75
2022/10/29 06:09:46;;;;;;;;;;;;;;;12.80;83.22;97060.56;4970761;28;19926;-74
2022/10/29 06:12:13;;;;;;;;;;;;;;;12.83;83.27;97067.31;4971843;28;19922;-75
2022/10/29 06:14:39;;;;;;;;;;;;;;;12.80;83.29;97068.78;4972015;28;19981;-75
2022/10/29 06:17:07;;;;;;;;;;;;;;;12.83;83.50;97069.25;4973613;28;19922;-77
2022/10/29 06:19:33;;;;;;;;;;;;;;;12.84;83.27;97074.38;4973172;28;20254;-78
2022/10/29 06:22:00;;;;;;;;;;;;;;;12.86;83.49;97074.91;4973543;28;19922;-78
2022/10/29 06:24:26;;;;;;;;;;;;;;;12.85;83.40;97072.50;4992640;28;20029;-78
2022/10/29 06:26:53;;;;;;;;;;;;;;;12.85;83.25;97072.50;4973967;28;19922;-79
2022/10/29 06:29:19;;;;;;;;;;;;;;;12.89;83.26;97073.44;4976939;28;20289;-79
2022/10/29 06:31:46;;;;;;;;;;;;;;;12.93;83.46;97068.97;4962416;28;19922;-79
2022/10/29 06:34:14;;;;;;;;;;;;;;;12.94;83.29;97070.56;4980426;28;19928;-79
2022/10/29 06:36:40;;;;;;;;;;;;;;;12.97;83.15;97068.03;4981293;28;20467;-81
2022/10/29 06:39:07;;;;;;;;;;;;;;;13.02;82.95;97070.63;4979338;28;19929;-78
2022/10/29 06:41:33;;;;;;;;;;;;;;;13.07;82.75;97069.69;4959546;28;20368;-78
2022/10/29 06:44:00;;;;;;;;;;;;;;;13.12;82.96;97077.72;4974471;28;20032;-79
2022/10/29 06:46:26;;;;;;;;;;;;;;;13.18;82.98;97076.47;4994782;28;19927;-78
2022/10/29 06:48:53;;;;;;;;;;;;;;;13.22;82.24;97088.41;4996507;28;19922;-78
2022/10/29 06:51:21;;;;;;;;;;;;;;;13.26;81.40;97080.41;4980418;28;19928;-78
2022/10/29 06:53:48;;;;;;;;;;;;;;;13.31;81.66;97086.53;4996097;28;20008;-79
2022/10/29 06:56:14;;;;;;;;;;;;;;;13.35;81.79;97086.66;4994242;28;19926;-79
2022/10/29 06:58:41;;;;;;;;;;;;;;;13.37;82.34;97083.63;4994198;28;20045;-79
2022/10/29 07:01:07;;;;;;;;;;;;;;;13.41;82.51;97081.84;4999200;28;19922;-78
2022/10/29 07:03:33;;;;;;;;;;;;;;;13.43;82.76;97085.09;4995448;28;19922;-78
2022/10/29 07:06:00;;;;;;;;;;;;;;;13.49;82.88;97084.63;4995197;28;19926;-78
2022/10/29 07:08:29;;;;;;;;;;;;;;;13.53;82.24;97093.00;4974929;28;19928;-78
2022/10/29 07:10:56;;;;;;;;;;;;;;;13.58;81.98;97090.13;4974615;28;19922;-78
2022/10/29 07:13:22;;;;;;;;;;;;;;;13.54;82.42;97094.63;4957343;28;19929;-78
2022/10/29 07:15:49;;;;;;;;;;;;;;;13.53;82.68;97087.53;4976780;28;19922;-78
2022/10/29 07:18:15;;;;;;;;;;;;;;;13.55;82.42;97079.81;4974870;28;20005;-78
2022/10/29 07:20:42;;;;;;;;;;;;;;;13.58;82.46;97084.66;4982545;28;19932;-80
2022/10/29 07:23:09;;;;;;;;;;;;;;;13.65;82.69;97087.72;4993296;28;19994;-79
2022/10/29 07:25:38;;;;;;;;;;;;;;;13.73;82.87;97081.47;4994461;28;20012;-79
2022/10/29 07:28:06;;;;;;;;;;;;;;;13.84;82.68;97080.00;4992764;28;19991;-79
2022/10/29 07:30:32;;;;;;;;;;;;;;;14.00;82.14;97080.34;4992492;28;19961;-79
2022/10/29 07:32:59;;;;;;;;;;;;;;;14.20;82.17;97075.31;4981149;28;19932;-79
2022/10/29 07:35:25;;;;;;;;;;;;;;;14.39;81.23;97074.97;4978221;28;19929;-79
2022/10/29 07:37:52;;;;;;;;;;;;;;;14.55;78.71;97070.63;4960792;28;19922;-78
2022/10/29 07:40:18;;;;;;;;;;;;;;;14.76;78.01;97087.97;4978026;28;19928;-78
2022/10/29 07:42:51;;;;;;;;;;;;;;;14.95;75.62;97090.34;4977061;28;19926;-79
2022/10/29 07:45:18;;;;;;;;;;;;;;;15.14;74.39;97088.03;4957517;29;19929;-79
2022/10/29 07:47:44;;;;;;;;;;;;;;;15.05;68.61;97091.94;4958772;29;20009;-79
2022/10/29 07:50:11;;;;;;;;;;;;;;;15.24;68.79;97095.06;4958004;29;19922;-79
2022/10/29 07:52:38;;;;;;;;;;;;;;;15.30;67.53;97088.28;4957608;29;20278;-78
2022/10/29 07:55:04;;;;;;;;;;;;;;;15.41;67.98;97088.69;4957432;29;19933;-78
2022/10/29 07:57:31;;;;;;;;;;;;;;;15.51;68.67;97093.81;4957809;29;19929;-79
2022/10/29 07:59:58;;;;;;;;;;;;;;;15.56;68.29;97093.63;4957858;29;19928;-79
2022/10/29 08:02:25;;;;;;;;;;;;;;;15.62;67.40;97091.47;4957104;29;19922;-78
2022/10/29 08:04:51;;;;;;;;;;;;;;;15.65;68.06;97097.13;4957874;29;20010;-78
2022/10/29 08:07:18;;;;;;;;;;;;;;;15.55;65.42;97099.41;4956536;29;20014;-78
2022/10/29 08:09:44;;;;;;;;;;;;;;;15.69;66.01;97104.72;4959922;29;19926;-79
2022/10/29 08:12:11;;;;;;;;;;;;;;;15.77;66.56;97099.16;4964869;29;20397;-79
2022/10/29 08:14:37;;;;;;;;;;;;;;;15.82;66.67;97098.97;4982629;28;20292;-79
2022/10/29 08:17:05;;;;;;;;;;;;;;;15.85;66.87;97095.53;4984526;28;19928;-79
2022/10/29 08:19:32;;;;;;;;;;;;;;;15.90;67.27;97089.84;4984066;28;19922;-80
2022/10/29 08:21:58;;;;;;;;;;;;;;;15.99;67.76;97091.75;4967308;28;19965;-80
2022/10/29 08:24:24;;;;;;;;;;;;;;;16.06;68.55;97081.81;4984888;28;19977;-78
2022/10/29 08:26:51;;;;;;;;;;;;;;;16.10;68.71;97071.78;4980594;28;19922;-79
2022/10/29 08:29:17;;;;;;;;;;;;;;;16.17;68.72;97076.72;4977725;28;19944;-78
2022/10/29 08:31:44;;;;;;;;;;;;;;;16.17;67.20;97087.69;4978215;28;19922;-78
2022/10/29 08:34:11;;;;;;;;;;;;;;;16.17;66.09;97085.75;4977457;28;20369;-79
2022/10/29 08:36:38;;;;;;;;;;;;;;;16.25;65.85;97081.34;4978175;28;20385;-79
2022/10/29 08:39:04;;;;;;;;;;;;;;;16.29;66.03;97084.22;4979275;28;20444;-78
2022/10/29 08:41:36;;;;;;;;;;;;;;;16.32;66.25;97072.53;4977638;28;19922;-78
2022/10/29 08:44:20;;;;;;;;;;;;;;;16.38;66.03;97077.47;4975982;28;19922;-79
2022/10/29 08:46:49;;;;;;;;;;;;;;;16.45;65.86;97074.22;4978051;28;19922;-79
2022/10/29 08:49:19;;;;;;;;;;;;;;;16.44;65.37;97070.66;4977725;28;19926;-79
2022/10/29 08:51:50;;;;;;;;;;;;;;;16.50;65.69;97079.50;4979471;28;19922;-78
2022/10/29 08:54:17;;;;;;;;;;;;;;;16.56;65.58;97080.09;4977906;28;20368;-78
2022/10/29 08:56:46;;;;;;;;;;;;;;;16.60;65.81;97078.25;4977685;28;19922;-78
2022/10/29 08:59:13;;;;;;;;;;;;;;;16.65;65.97;97078.03;4976901;28;20384;-79
2022/10/29 09:01:40;;;;;;;;;;;;;;;16.69;65.59;97082.50;4977297;28;19922;-78
2022/10/29 09:04:14;;;;;;;;;;;;;;;16.74;65.64;97087.03;4976588;28;19945;-78
2022/10/29 09:06:45;;;;;;;;;;;;;;;16.75;64.79;97085.09;4976375;28;19928;-78
2022/10/29 09:09:21;;;;;;;;;;;;;;;16.80;64.72;97088.41;4958615;28;19926;-78
2022/10/29 09:12:00;;;;;;;;;;;;;;;16.80;63.11;97104.13;4975552;28;20337;-78
2022/10/29 09:14:41;;;;;;;;;;;;;;;16.87;63.55;97105.19;4975260;28;19929;-78
2022/10/29 09:17:16;;;;;;;;;;;;;;;16.95;64.08;97101.50;4975145;28;19922;-77
2022/10/29 09:19:53;;;;;;;;;;;;;;;17.02;64.60;97089.97;4959754;28;19925;-78
2022/10/29 09:22:25;;;;;;;;;;;;;;;17.06;64.36;97095.56;4975441;28;19928;-78
2022/10/29 09:24:57;;;;;;;;;;;;;;;17.15;64.09;97094.31;4976481;28;19994;-78
2022/10/29 09:27:25;;;;;;;;;;;;;;;17.26;64.43;97094.69;4979350;28;20004;-79
2022/10/29 09:29:58;;;;;;;;;;;;;;;17.31;64.48;97086.19;4976114;28;19981;-79
2022/10/29 09:32:26;;;;;;;;;;;;;;;17.38;64.19;97086.44;4976247;28;19922;-78
2022/10/29 09:34:55;;;;;;;;;;;;;;;17.42;62.76;97083.78;4976777;28;19922;-77
2022/10/29 09:37:25;;;;;;;;;;;;;;;17.43;61.79;97094.44;4976228;28;20385;-78
2022/10/29 09:39:52;;;;;;;;;;;;;;;17.57;63.00;97090.56;4976713;28;19922;-79
2022/10/29 09:42:22;;;;;;;;;;;;;;;17.58;61.63;97089.41;4976129;28;19929;-78
2022/10/29 09:44:52;;;;;;;;;;;;;;;17.70;62.00;97092.97;4958963;28;19928;-78
2022/10/29 09:47:24;;;;;;;;;;;;;;;17.70;60.21;97083.91;4975208;28;19922;-78
2022/10/29 09:49:58;;;;;;;;;;;;;;;17.88;60.64;97081.72;4976510;28;20454;-79
2022/10/29 09:52:29;;;;;;;;;;;;;;;18.15;61.69;97085.66;4975355;28;19929;-78
2022/10/29 09:54:55;;;;;;;;;;;;;;;18.35;59.55;97079.16;4978091;28;19929;-76
2022/10/29 09:57:23;;;;;;;;;;;;;;;18.59;58.90;97074.69;4976018;28;19930;-78
2022/10/29 09:59:51;;;;;;;;;;;;;;;18.86;58.60;97075.84;4976756;28;19922;-79
2022/10/29 10:02:24;;;;;;;;;;;;;;;19.16;57.90;97068.72;4976149;28;19945;-80
2022/10/29 10:04:54;;;;;;;;;;;;;;;19.42;56.81;97070.94;4975429;28;19922;-78
2022/10/29 10:07:20;;;;;;;;;;;;;;;19.74;56.35;97065.41;4974634;28;19922;-79
2022/10/29 10:09:52;;;;;;;;;;;;;;;20.01;54.90;97064.41;4975444;28;19926;-78
2022/10/29 10:12:19;;;;;;;;;;;;;;;20.29;53.46;97060.63;4975393;28;19922;-80
2022/10/29 10:14:46;;;;;;;;;;;;;;;20.25;51.22;97060.56;4975180;28;19926;-79
2022/10/29 10:17:12;;;;;;;;;;;;;;;20.47;52.61;97055.50;4957477;28;19953;-79
2022/10/29 10:19:43;;;;;;;;;;;;;;;20.69;52.96;97048.41;4975195;28;20378;-79
2022/10/29 10:22:17;;;;;;;;;;;;;;;20.90;52.60;97048.78;4975036;28;19922;-79
2022/10/29 10:24:43;;;;;;;;;;;;;;;21.11;52.13;97042.81;4976115;28;19922;-79
2022/10/29 10:27:24;;;;;;;;;;;;;;;21.26;51.64;97043.88;4975602;28;19922;-79
2022/10/29 10:30:06;;;;;;;;;;;;;;;21.43;51.46;97037.84;4957665;28;19922;-79
2022/10/29 10:32:33;;;;;;;;;;;;;;;21.53;51.75;97039.19;4975654;28;19928;-79
2022/10/29 10:34:59;;;;;;;;;;;;;;;21.65;51.43;97038.94;4958536;28;19977;-79
2022/10/29 10:37:26;;;;;;;;;;;;;;;21.72;51.09;97038.28;4976166;28;19922;-79
2022/10/29 10:39:54;;;;;;;;;;;;;;;21.80;51.54;97045.50;4976831;28;19928;-79
2022/10/29 10:42:24;;;;;;;;;;;;;;;21.77;50.80;97044.28;4975650;28;19922;-80
2022/10/29 10:44:51;;;;;;;;;;;;;;;21.75;51.55;97043.84;4976961;28;19926;-80
2022/10/29 10:47:19;;;;;;;;;;;;;;;21.93;51.38;97038.56;4976296;28;19922;-79
2022/10/29 10:49:45;;;;;;;;;;;;;;;21.89;51.96;97024.66;4976907;28;20396;-79
2022/10/29 10:52:15;;;;;;;;;;;;;;;22.10;51.65;97026.94;4959163;28;19922;-80
2022/10/29 10:54:45;;;;;;;;;;;;;;;22.30;51.42;97029.56;4977211;28;20534;-80
2022/10/29 10:57:21;;;;;;;;;;;;;;;22.32;50.26;97022.44;4976567;28;19922;-80
2022/10/29 10:59:52;;;;;;;;;;;;;;;22.28;49.73;97016.03;4976462;28;19928;-79
2022/10/29 11:02:24;;;;;;;;;;;;;;;22.25;50.89;97016.03;4976388;28;19928;-79
2022/10/29 11:04:56;;;;;;;;;;;;;;;22.23;50.73;97008.06;4978542;28;20381;-81
2022/10/29 11:07:24;;;;;;;;;;;;;;;22.28;50.75;97004.16;4979601;28;20580;-79
2022/10/29 11:09:51;;;;;;;;;;;;;;;22.26;50.19;96998.19;4979834;28;19925;-78
2022/10/29 11:12:25;;;;;;;;;;;;;;;22.41;50.96;96997.19;4981243;28;20377;-79
2022/10/29 11:14:54;;;;;;;;;;;;;;;22.47;50.89;96997.63;4979066;28;20400;-78
2022/10/29 11:17:26;;;;;;;;;;;;;;;22.54;49.84;96990.16;4978862;28;19922;-80
2022/10/29 11:19:53;;;;;;;;;;;;;;;22.67;50.17;96999.03;4979273;28;19969;-79
2022/10/29 11:22:22;;;;;;;;;;;;;;;22.72;49.79;96995.13;4980237;28;20305;-79
2022/10/29 11:24:51;;;;;;;;;;;;;;;22.75;51.00;96994.34;4981473;28;19980;-79
2022/10/29 11:27:28;;;;;;;;;;;;;;;22.77;50.33;96992.00;4980673;28;19981;-79
2022/10/29 11:30:00;;;;;;;;;;;;;;;23.05;51.38;96977.59;4983884;28;19972;-80
2022/10/29 11:32:30;;;;;;;;;;;;;;;23.14;49.75;96978.06;4980746;28;19922;-80
2022/10/29 11:35:03;;;;;;;;;;;;;;;23.18;48.58;96974.13;4980897;28;19926;-78
2022/10/29 11:37:32;;;;;;;;;;;;;;;23.27;48.80;96972.97;4991276;28;19922;-78
2022/10/29 11:40:01;;;;;;;;;;;;;;;23.32;49.47;96967.06;4999097;28;19925;-79
2022/10/29 11:42:28;;;;;;;;;;;;;;;23.40;49.38;96969.50;5007125;28;19922;-80
2022/10/29 11:44:57;;;;;;;;;;;;;;;23.48;47.81;96970.34;5014644;28;19906;-80
2022/10/29 11:47:34;;;;;;;;;;;;;;;23.53;47.24;96967.19;5013109;28;19982;-79
2022/10/29 11:50:09;;;;;;;;;;;;;;;23.68;46.54;96962.56;5014994;28;19985;-80
2022/10/29 11:52:40;;;;;;;;;;;;;;;23.90;46.57;96966.22;5009695;28;19953;-79
2022/10/29 11:55:16;;;;;;;;;;;;;;;23.95;47.11;96974.22;5003852;28;19953;-79
2022/10/29 11:57:45;;;;;;;;;;;;;;;24.00;46.57;96964.69;5005169;28;19925;-79
2022/10/29 12:00:15;;;;;;;;;;;;;;;23.95;45.87;96961.09;4994027;28;19921;-79
2022/10/29 12:02:54;;;;;;;;;;;;;;;23.89;45.66;96961.88;5001985;28;19928;-80
2022/10/29 12:05:23;;;;;;;;;;;;;;;23.98;45.34;96955.94;4983274;28;19928;-80
2022/10/29 12:07:59;;;;;;;;;;;;;;;24.00;44.78;96954.34;5000794;28;19928;-80
2022/10/29 12:10:37;;;;;;;;;;;;;;;24.13;44.78;96950.06;5000243;28;19922;-79
2022/10/29 12:13:09;;;;;;;;;;;;;;;24.15;44.40;96942.09;4998710;28;19922;-79
2022/10/29 12:15:38;;;;;;;;;;;;;;;24.36;43.80;96937.81;4999157;28;19922;-79
2022/10/29 12:18:13;;;;;;;;;;;;;;;24.51;45.16;96931.09;5003964;28;19922;-80
2022/10/29 12:20:44;;;;;;;;;;;;;;;24.61;43.61;96935.88;5009413;28;19921;-80
2022/10/29 12:23:17;;;;;;;;;;;;;;;24.73;43.64;96926.31;5009696;28;19977;-80
2022/10/29 12:25:54;;;;;;;;;;;;;;;24.87;43.89;96925.53;5004235;28;19921;-79
2022/10/29 12:28:25;;;;;;;;;;;;;;;25.00;43.61;96929.50;5002812;28;19922;-80
2022/10/29 12:31:03;;;;;;;;;;;;;;;25.04;42.17;96924.75;5001767;28;19944;-79
2022/10/29 12:33:36;;;;;;;;;;;;;;;25.25;41.81;96923.94;4999529;28;19964;-80
2022/10/29 12:36:07;;;;;;;;;;;;;;;25.46;44.11;96929.47;4982353;28;19929;-80
2022/10/29 12:38:37;;;;;;;;;;;;;;;25.51;42.57;96920.72;4997351;28;20006;-79
2022/10/29 12:41:05;;;;;;;;;;;;;;;25.36;43.54;96912.78;4996418;28;19944;-79
2022/10/29 12:43:34;;;;;;;;;;;;;;;25.27;44.64;96915.19;4981372;28;19928;-79
2022/10/29 12:46:05;;;;;;;;;;;;;;;25.11;44.31;96910.03;4981082;28;20013;-80
2022/10/29 12:48:36;;;;;;;;;;;;;;;24.88;44.61;96907.63;4991942;28;19922;-79
2022/10/29 12:51:06;;;;;;;;;;;;;;;24.76;45.61;96902.47;4977364;28;19928;-79
2022/10/29 12:53:38;;;;;;;;;;;;;;;24.59;46.52;96896.50;4976644;28;20025;-79
2022/10/29 12:56:07;;;;;;;;;;;;;;;24.50;46.77;96904.44;4977266;28;19933;-79